createdAt,value
2022-12-11T00:00:30.942Z,4.50
2022-12-11T00:02:58.763Z,4.65
2022-12-11T00:05:26.364Z,5.95
2022-12-11T00:07:54.041Z,4.28
2022-12-11T00:10:22.453Z,3.43
2022-12-11T00:12:49.977Z,3.53
2022-12-11T00:15:17.576Z,4.97
2022-12-11T00:17:45.368Z,4.55
2022-12-11T00:20:13.014Z,3.85
2022-12-11T00:22:40.599Z,3.67
2022-12-11T00:25:09.003Z,4.32
2022-12-11T00:27:36.975Z,4.03
2022-12-11T00:30:05.696Z,5.85
2022-12-11T00:32:37.486Z,4.18
2022-12-11T00:35:05.621Z,5.23
2022-12-11T00:37:33.527Z,5.25
2022-12-11T00:40:01.099Z,4.57
2022-12-11T00:42:28.675Z,3.90
2022-12-11T00:44:56.553Z,4.32
2022-12-11T00:47:24.026Z,4.17
2022-12-11T00:49:51.584Z,3.92
2022-12-11T00:52:19.287Z,3.78
2022-12-11T00:54:46.753Z,4.28
2022-12-11T00:57:14.234Z,3.60
2022-12-11T00:59:42.058Z,4.47
2022-12-11T01:02:09.651Z,3.60
2022-12-11T01:04:37.282Z,3.00
2022-12-11T01:07:05.212Z,4.10
2022-12-11T01:09:51.513Z,3.72
2022-12-11T01:12:19.293Z,3.87
2022-12-11T01:14:46.873Z,4.45
2022-12-11T01:17:14.511Z,4.18
2022-12-11T01:19:42.366Z,3.62
2022-12-11T01:22:09.954Z,3.25
2022-12-11T01:24:38.151Z,3.07
2022-12-11T01:27:05.958Z,3.33
2022-12-11T01:29:33.737Z,3.58
2022-12-11T01:32:01.305Z,3.72
2022-12-11T01:34:30.654Z,3.10
2022-12-11T01:36:58.297Z,3.50
2022-12-11T01:39:25.852Z,4.35
2022-12-11T01:42:01.345Z,5.15
2022-12-11T01:44:31.798Z,4.40
2022-12-11T01:46:59.671Z,5.45
2022-12-11T01:49:27.887Z,5.77
2022-12-11T01:51:59.121Z,7.40
2022-12-11T01:54:28.352Z,5.93
2022-12-11T01:57:00.254Z,5.30
2022-12-11T01:59:29.957Z,5.55
2022-12-11T02:02:02.902Z,5.90
2022-12-11T02:04:31.362Z,5.12
2022-12-11T02:06:59.170Z,5.25
2022-12-11T02:09:35.134Z,6.10
2022-12-11T02:12:37.569Z,6.43
2022-12-11T02:15:39.126Z,6.67
2022-12-11T02:18:18.846Z,7.25
2022-12-11T02:21:02.686Z,7.18
2022-12-11T02:23:45.731Z,7.18
2022-12-11T02:26:36.927Z,7.70
2022-12-11T02:29:13.528Z,6.03
2022-12-11T02:31:52.022Z,7.82
2022-12-11T02:34:29.254Z,8.57
2022-12-11T02:36:59.779Z,8.57
2022-12-11T02:39:28.055Z,8.70
2022-12-11T02:41:56.754Z,11.13
2022-12-11T02:44:29.776Z,11.20
2022-12-11T02:46:58.502Z,12.10
2022-12-11T02:49:26.852Z,12.60
2022-12-11T02:51:55.067Z,11.60
2022-12-11T02:54:27.131Z,14.07
2022-12-11T02:57:02.249Z,12.07
2022-12-11T02:59:35.099Z,13.18
2022-12-11T03:02:03.506Z,11.25
2022-12-11T03:04:32.315Z,13.02
2022-12-11T03:07:12.500Z,11.63
2022-12-11T03:09:41.362Z,12.07
2022-12-11T03:12:11.539Z,12.37
2022-12-11T03:14:40.033Z,15.05
2022-12-11T03:17:25.791Z,11.63
2022-12-11T03:20:18.086Z,13.10
2022-12-11T03:22:58.587Z,14.60
2022-12-11T03:25:32.079Z,12.32
2022-12-11T03:28:11.036Z,12.48
2022-12-11T03:30:39.312Z,14.38
2022-12-11T03:33:11.987Z,12.60
2022-12-11T03:35:43.014Z,13.00
2022-12-11T03:38:24.069Z,12.68
2022-12-11T03:40:54.491Z,13.38
2022-12-11T03:43:22.821Z,11.65
2022-12-11T03:45:52.233Z,13.47
2022-12-11T03:48:21.228Z,15.07
2022-12-11T03:50:49.858Z,13.60
2022-12-11T03:53:18.820Z,13.25
2022-12-11T03:55:46.509Z,13.10
2022-12-11T03:58:14.474Z,12.57
2022-12-11T04:00:42.022Z,14.35
2022-12-11T04:03:17.833Z,13.73
2022-12-11T04:05:47.682Z,15.15
2022-12-11T04:08:16.870Z,15.23
2022-12-11T04:10:44.524Z,15.13
2022-12-11T04:13:12.345Z,13.43
2022-12-11T04:15:40.454Z,14.23
2022-12-11T04:18:27.001Z,16.33
2022-12-11T04:21:14.393Z,14.77
2022-12-11T04:24:00.516Z,13.50
2022-12-11T04:26:28.433Z,21.17
2022-12-11T04:28:56.031Z,14.27
2022-12-11T04:31:23.787Z,15.55
2022-12-11T04:33:51.719Z,16.77
2022-12-11T04:36:19.334Z,15.33
2022-12-11T04:38:46.892Z,13.90
2022-12-11T04:41:15.680Z,13.90
2022-12-11T04:43:46.707Z,14.00
2022-12-11T04:46:17.175Z,17.80
2022-12-11T04:48:45.665Z,15.03
2022-12-11T04:51:14.321Z,14.40
2022-12-11T04:53:42.297Z,15.43
2022-12-11T04:56:11.991Z,14.80
2022-12-11T04:58:41.131Z,15.50
2022-12-11T05:01:17.932Z,15.17
2022-12-11T05:03:46.506Z,16.65
2022-12-11T05:06:14.840Z,16.73
2022-12-11T05:08:43.170Z,18.23
2022-12-11T05:11:12.676Z,17.40
2022-12-11T05:13:40.745Z,17.50
2022-12-11T05:16:09.786Z,18.12
2022-12-11T05:18:37.448Z,18.30
2022-12-11T05:21:07.858Z,18.98
2022-12-11T05:23:36.120Z,18.73
2022-12-11T05:26:06.508Z,17.13
2022-12-11T05:28:36.541Z,16.30
2022-12-11T05:31:17.900Z,17.40
2022-12-11T05:33:46.671Z,17.05
2022-12-11T05:36:17.001Z,17.62
2022-12-11T05:38:45.665Z,18.77
2022-12-11T05:41:16.207Z,18.77
2022-12-11T05:43:43.862Z,18.15
2022-12-11T05:46:14.240Z,19.37
2022-12-11T05:48:43.357Z,19.60
2022-12-11T05:51:16.122Z,20.07
2022-12-11T05:53:44.944Z,19.83
2022-12-11T05:56:15.052Z,17.77
2022-12-11T05:58:43.905Z,18.75
2022-12-11T06:01:20.794Z,20.80
2022-12-11T06:03:48.852Z,18.70
2022-12-11T06:06:16.705Z,20.48
2022-12-11T06:08:44.449Z,20.75
2022-12-11T06:11:22.324Z,21.45
2022-12-11T06:13:52.399Z,19.48
2022-12-11T06:16:21.038Z,21.70
2022-12-11T06:18:48.867Z,17.92
2022-12-11T06:21:22.810Z,18.45
2022-12-11T06:23:52.792Z,22.92
2022-12-11T06:26:20.989Z,17.52
2022-12-11T06:28:49.198Z,19.97
2022-12-11T06:31:17.977Z,20.12
2022-12-11T06:33:45.790Z,19.60
2022-12-11T06:36:16.205Z,20.52
2022-12-11T06:38:44.711Z,22.40
2022-12-11T06:41:13.102Z,21.47
2022-12-11T06:43:41.582Z,21.02
2022-12-11T06:46:12.654Z,23.60
2022-12-11T06:48:42.314Z,22.95
2022-12-11T06:51:15.628Z,20.30
2022-12-11T06:53:44.197Z,19.07
2022-12-11T06:56:14.529Z,18.73
2022-12-11T06:58:43.317Z,20.08
2022-12-11T07:01:14.874Z,17.00
2022-12-11T07:03:43.009Z,19.70
2022-12-11T07:06:10.697Z,16.70
2022-12-11T07:08:38.227Z,17.70
2022-12-11T07:11:07.653Z,14.23
2022-12-11T07:13:35.730Z,15.30
2022-12-11T07:16:04.813Z,17.52
2022-12-11T07:18:32.816Z,15.70
2022-12-11T07:21:00.564Z,16.77
2022-12-11T07:23:28.698Z,16.83
2022-12-11T07:25:56.896Z,16.65
2022-12-11T07:28:26.100Z,19.80
2022-12-11T07:30:53.839Z,17.37
2022-12-11T07:33:21.670Z,15.88
2022-12-11T07:35:49.302Z,20.98
2022-12-11T07:38:17.260Z,18.25
2022-12-11T07:40:45.128Z,16.73
2022-12-11T07:43:12.731Z,15.27
2022-12-11T07:45:40.230Z,17.02
2022-12-11T07:48:08.403Z,18.15
2022-12-11T07:50:39.737Z,15.82
2022-12-11T07:53:08.084Z,15.98
2022-12-11T07:55:35.681Z,14.20
2022-12-11T07:58:03.649Z,15.65
2022-12-11T08:00:31.461Z,14.10
2022-12-11T08:02:59.331Z,13.00
2022-12-11T08:05:26.857Z,13.27
2022-12-11T08:07:54.431Z,15.63
2022-12-11T08:10:23.069Z,13.50
2022-12-11T08:12:50.987Z,12.43
2022-12-11T08:15:18.758Z,15.02
2022-12-11T08:17:46.538Z,22.50
2022-12-11T08:20:14.472Z,17.43
2022-12-11T08:22:41.957Z,21.45
2022-12-11T08:25:10.107Z,14.87
2022-12-11T08:27:37.826Z,16.75
2022-12-11T08:30:06.179Z,15.75
2022-12-11T08:32:34.711Z,16.50
2022-12-11T08:35:02.294Z,16.48
2022-12-11T08:37:29.758Z,11.90
2022-12-11T08:39:58.116Z,15.25
2022-12-11T08:42:25.658Z,12.90
2022-12-11T08:44:53.123Z,13.30
2022-12-11T08:47:20.993Z,13.48
2022-12-11T08:49:48.848Z,14.60
2022-12-11T08:52:16.606Z,13.82
2022-12-11T08:54:44.381Z,12.73
2022-12-11T08:57:11.927Z,12.20
2022-12-11T08:59:41.378Z,16.17
2022-12-11T09:02:12.322Z,15.43
2022-12-11T09:04:39.959Z,13.52
2022-12-11T09:07:07.356Z,15.07
2022-12-11T09:09:35.141Z,13.17
2022-12-11T09:12:04.679Z,13.40
2022-12-11T09:14:32.120Z,11.80
2022-12-11T09:16:59.860Z,12.27
2022-12-11T09:19:32.101Z,9.50
2022-12-11T09:22:02.864Z,11.20
2022-12-11T09:24:30.367Z,14.18
2022-12-11T09:26:57.844Z,11.45
2022-12-11T09:29:26.331Z,13.27
2022-12-11T09:31:53.964Z,13.00
2022-12-11T09:34:26.066Z,15.47
2022-12-11T09:36:57.440Z,13.30
2022-12-11T09:39:25.248Z,15.00
2022-12-11T09:42:11.285Z,13.38
2022-12-11T09:44:56.249Z,13.00
2022-12-11T09:47:36.630Z,11.67
2022-12-11T09:50:10.583Z,12.98
2022-12-11T09:52:49.472Z,13.60
2022-12-11T09:55:27.459Z,10.57
2022-12-11T09:58:16.355Z,12.10
2022-12-11T10:01:11.872Z,12.90
2022-12-11T10:04:05.612Z,13.43
2022-12-11T10:06:38.657Z,13.55
2022-12-11T10:09:18.149Z,12.57
2022-12-11T10:11:56.784Z,14.05
2022-12-11T10:14:27.682Z,18.03
2022-12-11T10:17:03.278Z,13.32
2022-12-11T10:19:32.519Z,12.48
2022-12-11T10:22:01.180Z,15.73
2022-12-11T10:25:09.611Z,16.92
2022-12-11T10:27:31.362Z,14.80
2022-12-11T10:30:16.615Z,15.77
2022-12-11T10:32:47.461Z,17.45
2022-12-11T10:35:42.414Z,18.67
2022-12-11T10:38:16.223Z,17.25
2022-12-11T10:40:49.252Z,16.23
2022-12-11T10:43:17.416Z,15.13
2022-12-11T10:45:53.271Z,13.52
2022-12-11T10:48:22.121Z,13.82
2022-12-11T10:51:04.538Z,13.57
2022-12-11T10:53:33.725Z,11.67
2022-12-11T10:56:01.923Z,12.77
2022-12-11T10:58:34.467Z,11.00
2022-12-11T11:01:11.124Z,10.65
2022-12-11T11:03:52.751Z,12.20
2022-12-11T11:06:21.432Z,12.77
2022-12-11T11:08:51.446Z,11.15
2022-12-11T11:11:23.400Z,11.73
2022-12-11T11:13:51.714Z,11.40
2022-12-11T11:16:21.228Z,11.48
2022-12-11T11:18:54.848Z,10.47
2022-12-11T11:21:25.003Z,10.07
2022-12-11T11:23:53.839Z,9.35
2022-12-11T11:26:23.048Z,11.40
2022-12-11T11:28:53.541Z,13.70
2022-12-11T11:31:23.179Z,13.70
2022-12-11T11:34:06.020Z,12.30
2022-12-11T11:36:35.800Z,12.43
2022-12-11T11:39:18.811Z,15.45
2022-12-11T11:41:52.331Z,11.18
2022-12-11T11:44:25.978Z,15.53
2022-12-11T11:47:04.016Z,13.40
2022-12-11T11:50:04.403Z,12.18
2022-12-11T11:53:00.845Z,10.52
2022-12-11T11:55:42.163Z,10.38
2022-12-11T11:58:19.434Z,10.67
2022-12-11T12:00:53.397Z,12.43
2022-12-11T12:03:23.694Z,12.32
2022-12-11T12:05:55.826Z,12.00
2022-12-11T12:08:58.379Z,18.12
2022-12-11T12:11:41.297Z,10.70
2022-12-11T12:14:51.062Z,15.13
2022-12-11T12:17:09.692Z,12.82
2022-12-11T12:20:11.111Z,10.13
2022-12-11T12:22:53.931Z,20.23
2022-12-11T12:25:46.251Z,15.67
2022-12-11T12:28:32.853Z,17.45
2022-12-11T12:31:17.636Z,23.10
2022-12-11T12:33:51.146Z,23.38
2022-12-11T12:36:39.834Z,17.67
2022-12-11T12:39:42.688Z,20.37
2022-12-11T12:42:19.611Z,16.30
2022-12-11T12:45:14.871Z,18.95
2022-12-11T12:47:46.742Z,19.65
2022-12-11T12:50:21.006Z,11.50
2022-12-11T12:52:49.476Z,14.00
2022-12-11T12:55:24.326Z,14.57
2022-12-11T12:58:00.614Z,13.80
2022-12-11T13:00:31.204Z,13.35
2022-12-11T13:03:02.659Z,13.70
2022-12-11T13:05:33.233Z,14.17
2022-12-11T13:08:03.731Z,14.68
2022-12-11T13:10:40.454Z,12.18
2022-12-11T13:13:31.664Z,15.05
2022-12-11T13:16:19.375Z,14.05
2022-12-11T13:18:48.324Z,13.60
2022-12-11T13:21:28.112Z,13.23
2022-12-11T13:24:07.205Z,14.07
2022-12-11T13:26:34.717Z,12.43
2022-12-11T13:29:02.468Z,11.90
2022-12-11T13:31:40.130Z,13.53
2022-12-11T13:34:20.654Z,12.00
2022-12-11T13:36:52.767Z,13.45
2022-12-11T13:39:25.513Z,12.88
2022-12-11T13:42:06.068Z,12.20
2022-12-11T13:44:38.989Z,10.87
2022-12-11T13:47:12.202Z,12.57
2022-12-11T13:49:43.661Z,13.30
2022-12-11T13:52:22.489Z,12.07
2022-12-11T13:54:53.096Z,19.52
2022-12-11T13:57:25.977Z,16.00
2022-12-11T13:59:56.402Z,12.88
2022-12-11T14:02:34.234Z,13.62
2022-12-11T14:05:12.900Z,12.63
2022-12-11T14:07:48.065Z,14.55
2022-12-11T14:10:29.958Z,14.87
2022-12-11T14:13:01.939Z,12.60
2022-12-11T14:15:31.770Z,18.40
2022-12-11T14:18:00.393Z,13.15
2022-12-11T14:20:30.255Z,14.85
2022-12-11T14:23:18.986Z,18.73
2022-12-11T14:26:17.125Z,14.38
2022-12-11T14:28:44.930Z,13.00
2022-12-11T14:31:17.335Z,18.17
2022-12-11T14:33:54.221Z,14.23
2022-12-11T14:36:22.054Z,15.27
2022-12-11T14:39:05.926Z,15.88
2022-12-11T14:41:45.662Z,13.82
2022-12-11T14:44:16.920Z,13.50
2022-12-11T14:46:56.755Z,14.77
2022-12-11T14:50:06.210Z,20.20
2022-12-11T14:52:37.414Z,16.87
2022-12-11T14:55:29.196Z,14.13
2022-12-11T14:58:03.544Z,13.68
2022-12-11T15:00:35.886Z,12.48
2022-12-11T15:03:07.197Z,16.70
2022-12-11T15:05:40.596Z,14.43
2022-12-11T15:08:11.125Z,18.23
2022-12-11T15:11:14.705Z,17.87
2022-12-11T15:13:52.660Z,18.45
2022-12-11T15:16:22.651Z,17.00
2022-12-11T15:18:51.954Z,20.42
2022-12-11T15:21:29.028Z,15.63
2022-12-11T15:23:58.847Z,16.40
2022-12-11T15:26:36.737Z,17.08
2022-12-11T15:29:07.421Z,13.20
2022-12-11T15:31:35.282Z,15.32
2022-12-11T15:34:03.384Z,17.15
2022-12-11T15:36:30.737Z,15.02
2022-12-11T15:38:58.942Z,15.07
2022-12-11T15:41:27.023Z,13.93
2022-12-11T15:43:58.930Z,14.40
2022-12-11T15:46:27.800Z,16.20
2022-12-11T15:48:56.529Z,16.08
2022-12-11T15:51:25.309Z,14.15
2022-12-11T15:53:53.283Z,14.67
2022-12-11T15:56:20.866Z,14.05
2022-12-11T15:58:48.826Z,13.80
2022-12-11T16:01:16.688Z,13.13
2022-12-11T16:03:45.765Z,13.95
2022-12-11T16:06:13.690Z,15.23
2022-12-11T16:08:41.237Z,14.07
2022-12-11T16:11:12.658Z,14.38
2022-12-11T16:13:40.276Z,14.60
2022-12-11T16:16:08.015Z,13.50
2022-12-11T16:18:35.839Z,16.47
2022-12-11T16:21:05.263Z,14.82
2022-12-11T16:23:32.851Z,13.77
2022-12-11T16:26:06.248Z,13.13
2022-12-11T16:28:33.994Z,13.80
2022-12-11T16:31:01.919Z,14.73
2022-12-11T16:33:29.572Z,16.25
2022-12-11T16:35:57.890Z,16.30
2022-12-11T16:38:25.747Z,14.75
2022-12-11T16:41:01.613Z,11.93
2022-12-11T16:43:29.333Z,14.03
2022-12-11T16:45:56.893Z,16.25
2022-12-11T16:48:24.523Z,12.90
2022-12-11T16:50:54.469Z,12.95
2022-12-11T16:53:22.191Z,14.82
2022-12-11T16:55:49.938Z,13.97
2022-12-11T16:58:21.398Z,15.32
2022-12-11T17:00:49.588Z,14.82
2022-12-11T17:03:18.522Z,18.17
2022-12-11T17:05:46.574Z,17.20
2022-12-11T17:08:14.450Z,15.07
2022-12-11T17:10:42.785Z,18.65
2022-12-11T17:13:10.682Z,19.83
2022-12-11T17:15:42.093Z,20.17
2022-12-11T17:18:13.225Z,16.40
2022-12-11T17:20:45.046Z,16.67
2022-12-11T17:23:13.533Z,19.60
2022-12-11T17:25:42.930Z,17.55
2022-12-11T17:28:11.680Z,15.30
2022-12-11T17:30:41.638Z,17.85
2022-12-11T17:33:10.139Z,16.43
2022-12-11T17:35:38.354Z,16.33
2022-12-11T17:38:06.392Z,15.80
2022-12-11T17:40:34.449Z,16.00
2022-12-11T17:43:06.392Z,16.87
2022-12-11T17:45:34.441Z,14.80
2022-12-11T17:48:02.554Z,16.27
2022-12-11T17:50:30.787Z,15.52
2022-12-11T17:52:58.878Z,15.93
2022-12-11T17:55:26.412Z,16.98
2022-12-11T17:57:54.072Z,15.70
2022-12-11T18:00:22.308Z,18.27
2022-12-11T18:02:50.182Z,17.55
2022-12-11T18:05:18.215Z,17.50
2022-12-11T18:07:46.034Z,15.38
2022-12-11T18:10:14.421Z,15.57
2022-12-11T18:12:41.938Z,17.27
2022-12-11T18:15:11.024Z,18.37
2022-12-11T18:17:39.201Z,17.52
2022-12-11T18:20:14.528Z,17.85
2022-12-11T18:22:42.745Z,14.87
2022-12-11T18:25:12.210Z,18.40
2022-12-11T18:27:40.339Z,22.42
2022-12-11T18:30:08.836Z,17.37
2022-12-11T18:32:37.146Z,14.35
2022-12-11T18:35:04.820Z,18.40
2022-12-11T18:37:32.860Z,15.25
2022-12-11T18:40:05.804Z,18.85
2022-12-11T18:42:33.933Z,15.65
2022-12-11T18:45:02.187Z,16.85
2022-12-11T18:47:30.910Z,16.03
2022-12-11T18:50:03.943Z,15.43
2022-12-11T18:52:34.876Z,17.17
2022-12-11T18:55:02.927Z,14.40
2022-12-11T18:57:31.060Z,19.40
2022-12-11T19:00:07.016Z,17.40
2022-12-11T19:02:36.031Z,14.60
2022-12-11T19:05:04.180Z,15.13
2022-12-11T19:07:32.128Z,16.20
2022-12-11T19:10:04.266Z,18.50
2022-12-11T19:12:31.787Z,16.27
2022-12-11T19:14:59.448Z,15.18
2022-12-11T19:17:28.666Z,15.90
2022-12-11T19:19:57.269Z,16.08
2022-12-11T19:22:25.084Z,15.98
2022-12-11T19:24:53.148Z,15.67
2022-12-11T19:27:20.797Z,16.00
2022-12-11T19:29:48.659Z,15.10
2022-12-11T19:32:16.823Z,15.80
2022-12-11T19:34:44.495Z,15.30
2022-12-11T19:37:12.174Z,14.47
2022-12-11T19:39:40.429Z,14.85
2022-12-11T19:42:08.218Z,16.70
2022-12-11T19:44:36.000Z,14.93
2022-12-11T19:47:04.216Z,15.43
2022-12-11T19:49:31.925Z,13.13
2022-12-11T19:51:59.626Z,15.57
2022-12-11T19:54:27.645Z,17.80
2022-12-11T19:56:57.860Z,17.70
2022-12-11T19:59:26.116Z,15.13
2022-12-11T20:01:54.184Z,18.20
2022-12-11T20:04:22.811Z,17.00
2022-12-11T20:06:50.324Z,15.45
2022-12-11T20:09:18.243Z,17.17
2022-12-11T20:11:47.411Z,17.73
2022-12-11T20:14:23.992Z,20.60
2022-12-11T20:17:11.004Z,21.83
2022-12-11T20:19:41.845Z,21.77
2022-12-11T20:22:10.023Z,17.92
2022-12-11T20:24:38.143Z,18.00
2022-12-11T20:27:05.930Z,18.17
2022-12-11T20:29:33.918Z,14.05
2022-12-11T20:32:03.140Z,18.90
2022-12-11T20:34:32.744Z,15.35
2022-12-11T20:37:00.700Z,15.25
2022-12-11T20:39:29.303Z,19.37
2022-12-11T20:41:57.024Z,18.45
2022-12-11T20:44:25.010Z,19.55
2022-12-11T20:46:52.820Z,19.37
2022-12-11T20:49:20.535Z,18.35
2022-12-11T20:51:48.577Z,14.00
2022-12-11T20:54:16.302Z,14.10
2022-12-11T20:56:44.592Z,13.48
2022-12-11T20:59:13.416Z,17.15
2022-12-11T21:01:41.089Z,15.23
2022-12-11T21:04:09.050Z,15.90
2022-12-11T21:06:38.811Z,14.38
2022-12-11T21:09:10.792Z,13.88
2022-12-11T21:11:39.222Z,14.70
2022-12-11T21:14:06.903Z,13.85
2022-12-11T21:16:36.442Z,15.70
2022-12-11T21:19:05.489Z,15.07
2022-12-11T21:21:42.742Z,15.05
2022-12-11T21:24:22.527Z,14.60
2022-12-11T21:26:50.472Z,14.35
2022-12-11T21:29:18.698Z,15.27
2022-12-11T21:31:46.256Z,15.18
2022-12-11T21:34:14.113Z,14.57
2022-12-11T21:36:42.120Z,13.70
2022-12-11T21:39:11.888Z,16.98
2022-12-11T21:41:40.763Z,12.43
2022-12-11T21:46:56.750Z,14.55
2022-12-11T21:49:24.486Z,13.27
2022-12-11T21:51:52.003Z,12.02
2022-12-11T21:54:19.773Z,12.43
2022-12-11T21:56:47.509Z,14.50
2022-12-11T21:59:15.438Z,14.25
2022-12-11T22:01:46.023Z,14.18
2022-12-11T22:04:14.902Z,13.30
2022-12-11T22:06:43.619Z,14.30
2022-12-11T22:09:12.549Z,14.75
2022-12-11T22:11:41.293Z,16.20
2022-12-11T22:14:16.181Z,16.45
2022-12-11T22:16:44.143Z,18.35
2022-12-11T22:19:11.830Z,18.27
2022-12-11T22:21:40.058Z,18.27
2022-12-11T22:24:08.048Z,16.70
2022-12-11T22:26:35.613Z,19.95
2022-12-11T22:29:03.303Z,17.62
2022-12-11T22:31:31.357Z,19.70
2022-12-11T22:33:58.975Z,21.92
2022-12-11T22:36:27.188Z,19.27
2022-12-11T22:38:55.361Z,22.17
2022-12-11T22:41:28.815Z,21.90
2022-12-11T22:43:57.405Z,26.40
2022-12-11T22:46:27.437Z,21.87
2022-12-11T22:48:55.386Z,24.80
2022-12-11T22:51:23.612Z,25.67
2022-12-11T22:53:51.278Z,23.87
2022-12-11T22:56:19.080Z,23.30
2022-12-11T22:58:47.073Z,24.63
2022-12-11T23:01:19.351Z,22.42
2022-12-11T23:03:47.584Z,23.02
2022-12-11T23:06:16.560Z,26.12
2022-12-11T23:08:44.250Z,25.43
2022-12-11T23:11:16.900Z,27.23
2022-12-11T23:13:44.446Z,25.40
2022-12-11T23:16:12.723Z,24.80
2022-12-11T23:18:40.275Z,24.60
2022-12-11T23:21:08.278Z,24.60
2022-12-11T23:23:36.037Z,24.75
2022-12-11T23:26:04.887Z,23.23
2022-12-11T23:28:32.356Z,24.33
2022-12-11T23:31:00.465Z,25.73
2022-12-11T23:33:28.418Z,25.33
2022-12-11T23:35:57.953Z,23.70
2022-12-11T23:38:25.785Z,20.45
2022-12-11T23:40:53.499Z,24.02
2022-12-11T23:43:21.272Z,27.65
2022-12-11T23:45:49.279Z,26.83
2022-12-11T23:48:17.392Z,22.15
2022-12-11T23:50:44.925Z,22.20
2022-12-11T23:53:12.981Z,20.23
2022-12-11T23:55:42.122Z,19.23
2022-12-11T23:58:10.805Z,22.43
